createdAt,value
2022-12-04T00:01:26.204Z,73.78
2022-12-04T00:03:59.662Z,77.43
2022-12-04T00:06:28.778Z,77.55
2022-12-04T00:08:57.795Z,66.72
2022-12-04T00:11:29.636Z,70.88
2022-12-04T00:14:01.615Z,69.57
2022-12-04T00:16:32.738Z,76.25
2022-12-04T00:19:00.430Z,70.43
2022-12-04T00:21:28.187Z,73.95
2022-12-04T00:23:55.859Z,73.18
2022-12-04T00:26:26.823Z,72.28
2022-12-04T00:28:56.011Z,70.63
2022-12-04T00:31:27.595Z,75.05
2022-12-04T00:33:55.579Z,74.22
2022-12-04T00:36:26.647Z,69.55
2022-12-04T00:38:55.279Z,71.75
2022-12-04T00:41:25.824Z,66.57
2022-12-04T00:43:54.188Z,67.55
2022-12-04T00:46:22.887Z,72.97
2022-12-04T00:48:51.978Z,65.78
2022-12-04T00:51:23.441Z,66.80
2022-12-04T00:53:52.596Z,62.50
2022-12-04T00:56:24.478Z,65.63
2022-12-04T00:58:54.663Z,68.65
2022-12-04T01:01:23.825Z,72.88
2022-12-04T01:03:52.440Z,64.20
2022-12-04T01:06:25.639Z,73.88
2022-12-04T01:08:55.151Z,66.03
2022-12-04T01:11:24.723Z,60.00
2022-12-04T01:13:53.257Z,66.18
2022-12-04T01:16:26.804Z,65.97
2022-12-04T01:18:54.687Z,68.82
2022-12-04T01:21:22.959Z,65.07
2022-12-04T01:23:50.688Z,63.25
2022-12-04T01:26:18.453Z,59.47
2022-12-04T01:28:46.208Z,61.53
2022-12-04T01:31:17.953Z,77.13
2022-12-04T01:33:47.200Z,64.63
2022-12-04T01:36:19.732Z,64.20
2022-12-04T01:38:47.630Z,63.40
2022-12-04T01:41:18.520Z,58.38
2022-12-04T01:44:10.534Z,60.28
2022-12-04T01:46:39.516Z,63.47
2022-12-04T01:49:17.795Z,67.40
2022-12-04T01:51:53.552Z,68.60
2022-12-04T01:54:29.183Z,66.95
2022-12-04T02:00:08.951Z,61.30
2022-12-04T02:02:40.727Z,71.47
2022-12-04T02:05:14.573Z,65.18
2022-12-04T02:07:45.892Z,73.43
2022-12-04T02:10:14.195Z,78.13
2022-12-04T02:13:20.359Z,67.18
2022-12-04T02:16:14.791Z,67.20
2022-12-04T02:18:59.470Z,66.47
2022-12-04T02:21:36.980Z,73.78
2022-12-04T02:24:28.791Z,68.57
2022-12-04T02:26:59.987Z,74.07
2022-12-04T02:29:30.436Z,66.88
2022-12-04T02:32:16.463Z,68.57
2022-12-04T02:37:27.225Z,70.10
2022-12-04T02:40:21.480Z,79.53
2022-12-04T02:43:00.485Z,74.53
2022-12-04T02:45:35.311Z,88.55
2022-12-04T02:48:06.063Z,84.63
2022-12-04T02:50:40.069Z,75.55
2022-12-04T02:53:30.202Z,84.75
2022-12-04T02:56:05.399Z,88.32
2022-12-04T02:58:45.041Z,75.82
2022-12-04T03:01:24.119Z,79.45
2022-12-04T03:04:17.884Z,78.65
2022-12-04T03:06:55.184Z,84.53
2022-12-04T03:09:30.834Z,77.53
2022-12-04T03:14:48.241Z,87.68
2022-12-04T03:17:30.189Z,84.43
2022-12-04T03:20:05.077Z,94.38
2022-12-04T03:22:37.207Z,83.85
2022-12-04T03:25:06.751Z,81.93
2022-12-04T03:28:07.630Z,79.53
2022-12-04T03:30:45.932Z,81.57
2022-12-04T03:33:19.826Z,88.22
2022-12-04T03:35:59.822Z,88.28
2022-12-04T03:38:43.393Z,89.55
2022-12-04T03:41:50.205Z,79.30
2022-12-04T03:44:38.104Z,75.88
2022-12-04T03:47:16.598Z,81.65
2022-12-04T03:49:59.083Z,82.45
2022-12-04T03:52:50.928Z,82.88
2022-12-04T03:55:29.240Z,82.90
2022-12-04T03:58:06.858Z,77.32
2022-12-04T04:00:40.582Z,78.93
2022-12-04T04:03:29.341Z,92.65
2022-12-04T04:06:04.585Z,86.28
2022-12-04T04:08:37.508Z,80.95
2022-12-04T04:11:24.380Z,75.25
2022-12-04T04:14:17.601Z,79.65
2022-12-04T04:17:12.789Z,82.30
2022-12-04T04:20:01.811Z,86.88
2022-12-04T04:22:54.478Z,78.95
2022-12-04T04:25:27.240Z,87.72
2022-12-04T04:27:58.249Z,79.18
2022-12-04T04:30:29.576Z,84.72
2022-12-04T04:33:16.843Z,91.13
2022-12-04T04:36:02.720Z,79.40
2022-12-04T04:38:46.074Z,78.95
2022-12-04T04:41:29.269Z,77.40
2022-12-04T04:44:15.469Z,82.50
2022-12-04T04:46:51.880Z,89.57
2022-12-04T04:49:23.123Z,79.75
2022-12-04T04:51:51.108Z,85.60
2022-12-04T04:54:20.131Z,80.63
2022-12-04T04:56:48.150Z,80.93
2022-12-04T04:59:15.789Z,70.28
2022-12-04T05:01:46.276Z,72.55
2022-12-04T05:04:14.813Z,75.03
2022-12-04T05:06:42.565Z,71.00
2022-12-04T05:09:10.217Z,78.47
2022-12-04T05:11:37.843Z,92.75
2022-12-04T05:14:06.200Z,90.88
2022-12-04T05:16:34.286Z,79.22
2022-12-04T05:19:20.919Z,82.60
2022-12-04T05:21:48.601Z,76.20
2022-12-04T05:24:16.188Z,81.70
2022-12-04T05:26:43.777Z,82.57
2022-12-04T05:29:11.337Z,80.88
2022-12-04T05:31:39.085Z,83.80
2022-12-04T05:34:06.743Z,81.75
2022-12-04T05:36:34.474Z,84.15
2022-12-04T05:39:02.051Z,77.03
2022-12-04T05:41:29.769Z,81.38
2022-12-04T05:43:57.427Z,87.30
2022-12-04T05:46:25.221Z,85.05
2022-12-04T05:48:52.859Z,78.75
2022-12-04T05:51:20.522Z,82.40
2022-12-04T05:53:48.152Z,76.30
2022-12-04T05:56:15.791Z,82.55
2022-12-04T05:58:43.391Z,81.57
2022-12-04T06:01:21.098Z,86.47
2022-12-04T06:03:48.899Z,73.03
2022-12-04T06:06:25.804Z,79.15
2022-12-04T06:08:58.057Z,81.00
2022-12-04T06:11:32.860Z,77.18
2022-12-04T06:14:02.766Z,77.20
2022-12-04T06:16:39.164Z,76.85
2022-12-04T06:19:14.598Z,75.07
2022-12-04T06:21:45.196Z,83.90
2022-12-04T06:24:17.179Z,78.97
2022-12-04T06:27:10.991Z,83.68
2022-12-04T06:29:33.510Z,77.90
2022-12-04T06:32:01.232Z,77.57
2022-12-04T06:34:28.961Z,85.25
2022-12-04T06:36:56.660Z,78.57
2022-12-04T06:39:24.407Z,76.40
2022-12-04T06:41:52.057Z,75.68
2022-12-04T06:44:19.688Z,83.15
2022-12-04T06:46:50.057Z,87.60
2022-12-04T06:49:19.517Z,78.18
2022-12-04T06:51:47.100Z,80.18
2022-12-04T06:54:14.751Z,77.47
2022-12-04T06:56:42.595Z,75.30
2022-12-04T06:59:10.977Z,78.55
2022-12-04T07:01:38.717Z,76.43
2022-12-04T07:04:07.496Z,73.60
2022-12-04T07:06:38.453Z,77.90
2022-12-04T07:09:14.939Z,84.53
2022-12-04T07:11:43.759Z,76.75
2022-12-04T07:14:12.836Z,82.80
2022-12-04T07:16:42.382Z,72.97
2022-12-04T07:19:14.602Z,81.13
2022-12-04T07:21:43.243Z,73.95
2022-12-04T07:24:17.801Z,75.78
2022-12-04T07:26:45.975Z,70.88
2022-12-04T07:29:13.932Z,82.78
2022-12-04T07:31:41.675Z,80.45
2022-12-04T07:34:09.310Z,81.55
2022-12-04T07:36:39.689Z,78.68
2022-12-04T07:39:07.458Z,72.93
2022-12-04T07:41:35.657Z,78.82
2022-12-04T07:44:07.671Z,79.32
2022-12-04T07:46:35.441Z,79.57
2022-12-04T07:49:03.180Z,82.28
2022-12-04T07:51:30.955Z,77.60
2022-12-04T07:54:03.133Z,74.32
2022-12-04T07:56:33.363Z,80.60
2022-12-04T07:59:01.705Z,83.90
2022-12-04T08:01:29.747Z,80.70
2022-12-04T08:03:59.758Z,78.45
2022-12-04T08:06:30.641Z,83.18
2022-12-04T08:08:58.292Z,76.00
2022-12-04T08:11:28.352Z,78.80
2022-12-04T08:14:05.456Z,75.72
2022-12-04T08:16:33.694Z,74.95
2022-12-04T08:19:01.707Z,79.82
2022-12-04T08:21:32.033Z,75.20
2022-12-04T08:24:02.378Z,75.45
2022-12-04T08:26:33.483Z,87.30
2022-12-04T08:29:02.988Z,75.57
2022-12-04T08:31:33.025Z,74.43
2022-12-04T08:34:03.796Z,70.30
2022-12-04T08:36:32.656Z,80.93
2022-12-04T08:39:00.524Z,77.97
2022-12-04T08:41:28.390Z,79.15
2022-12-04T08:43:56.450Z,86.00
2022-12-04T08:46:26.337Z,83.15
2022-12-04T08:48:55.003Z,75.03
2022-12-04T08:51:29.976Z,82.95
2022-12-04T08:54:01.398Z,73.18
2022-12-04T08:56:31.368Z,81.85
2022-12-04T08:59:00.745Z,81.18
2022-12-04T09:01:29.864Z,78.82
2022-12-04T09:03:57.859Z,80.03
2022-12-04T09:06:25.729Z,78.07
2022-12-04T09:08:56.223Z,78.72
2022-12-04T09:11:27.854Z,72.50
2022-12-04T09:13:56.044Z,79.65
2022-12-04T09:16:25.884Z,78.07
2022-12-04T09:18:54.562Z,79.40
2022-12-04T09:21:24.640Z,82.63
2022-12-04T09:23:52.414Z,82.88
2022-12-04T09:26:32.606Z,81.43
2022-12-04T09:29:02.275Z,73.75
2022-12-04T09:31:30.748Z,81.15
2022-12-04T09:34:02.334Z,79.55
2022-12-04T09:36:30.603Z,79.35
2022-12-04T09:38:58.762Z,82.20
2022-12-04T09:41:41.967Z,74.60
2022-12-04T09:44:31.102Z,74.18
2022-12-04T09:47:04.956Z,85.88
2022-12-04T09:49:59.337Z,82.20
2022-12-04T09:52:58.202Z,76.55
2022-12-04T09:55:58.301Z,79.72
2022-12-04T09:58:38.979Z,75.72
2022-12-04T10:01:07.407Z,76.47
2022-12-04T10:03:35.746Z,86.22
2022-12-04T10:06:19.620Z,82.50
2022-12-04T10:09:21.324Z,87.13
2022-12-04T10:11:59.760Z,82.80
2022-12-04T10:15:33.148Z,81.15
2022-12-04T10:18:23.612Z,71.82
2022-12-04T10:21:21.565Z,80.97
2022-12-04T10:24:19.164Z,77.40
2022-12-04T10:26:48.672Z,88.82
2022-12-04T10:29:26.194Z,78.45
2022-12-04T10:31:57.422Z,76.47
2022-12-04T10:34:27.738Z,85.60
2022-12-04T10:37:04.415Z,83.35
2022-12-04T10:40:02.034Z,82.70
2022-12-04T10:42:46.013Z,80.35
2022-12-04T10:45:13.761Z,75.75
2022-12-04T10:47:48.224Z,84.35
2022-12-04T11:29:24.333Z,80.10
2022-12-04T11:31:55.073Z,79.28
2022-12-04T11:34:28.488Z,78.32
2022-12-04T11:36:57.952Z,77.85
2022-12-04T11:39:41.378Z,77.38
2022-12-04T11:42:23.633Z,76.57
2022-12-04T11:44:57.303Z,80.47
2022-12-04T11:47:29.274Z,75.43
2022-12-04T11:50:36.855Z,80.70
2022-12-04T11:53:26.241Z,76.65
2022-12-04T11:56:41.909Z,82.90
2022-12-04T11:59:31.183Z,76.93
2022-12-04T12:02:12.782Z,74.05
2022-12-04T12:05:24.585Z,72.47
2022-12-04T12:08:08.156Z,80.15
2022-12-04T12:11:11.138Z,73.22
2022-12-04T12:13:53.771Z,76.35
2022-12-04T12:16:51.638Z,71.70
2022-12-04T12:19:38.342Z,74.78
2022-12-04T12:22:41.996Z,69.10
2022-12-04T12:25:40.383Z,71.90
2022-12-04T12:28:54.066Z,69.25
2022-12-04T12:31:59.068Z,75.80
2022-12-04T12:34:33.003Z,73.78
2022-12-04T12:37:08.958Z,75.85
2022-12-04T12:39:46.433Z,70.60
2022-12-04T12:42:30.836Z,71.65
2022-12-04T12:45:29.021Z,72.18
2022-12-04T12:48:08.081Z,79.15
2022-12-04T12:50:49.398Z,70.78
2022-12-04T12:53:29.390Z,73.57
2022-12-04T12:56:04.159Z,70.50
2022-12-04T13:01:19.891Z,74.05
2022-12-04T13:04:12.969Z,71.90
2022-12-04T13:06:51.469Z,69.13
2022-12-04T13:09:31.806Z,71.82
2022-12-04T13:12:06.975Z,67.90
2022-12-04T13:14:34.780Z,70.30
2022-12-04T13:17:11.479Z,67.95
2022-12-04T13:19:47.994Z,73.25
2022-12-04T13:22:49.418Z,72.22
2022-12-04T13:25:29.297Z,70.28
2022-12-04T13:28:37.476Z,68.72
2022-12-04T13:31:11.398Z,68.72
2022-12-04T13:33:47.887Z,71.32
2022-12-04T13:36:52.945Z,67.35
2022-12-04T13:39:47.899Z,61.95
2022-12-04T13:42:28.146Z,60.22
2022-12-04T13:45:06.065Z,61.78
2022-12-04T13:47:35.617Z,59.22
2022-12-04T13:50:28.857Z,58.60
2022-12-04T13:52:57.397Z,60.90
2022-12-04T13:55:34.053Z,55.10
2022-12-04T13:58:21.795Z,55.95
2022-12-04T14:01:06.855Z,51.47
2022-12-04T14:03:47.436Z,54.10
2022-12-04T14:06:37.446Z,54.05
2022-12-04T14:09:33.046Z,49.72
2022-12-04T14:12:04.202Z,52.67
2022-12-04T14:14:45.977Z,44.65
2022-12-04T14:17:25.429Z,41.38
2022-12-04T14:20:00.766Z,40.10
2022-12-04T14:22:44.602Z,40.92
2022-12-04T14:25:15.146Z,37.42
2022-12-04T14:27:42.863Z,41.83
2022-12-04T14:30:36.177Z,39.85
2022-12-04T14:33:24.259Z,38.63
2022-12-04T14:36:03.633Z,37.67
2022-12-04T14:38:33.193Z,34.58
2022-12-04T14:41:01.770Z,36.72
2022-12-04T14:43:40.263Z,31.80
2022-12-04T14:46:22.177Z,31.92
2022-12-04T14:49:20.560Z,37.28
2022-12-04T14:52:27.331Z,35.03
2022-12-04T14:55:38.749Z,35.25
2022-12-04T14:58:31.951Z,34.20
2022-12-04T15:01:23.934Z,35.03
2022-12-04T15:03:59.063Z,36.78
2022-12-04T15:06:29.800Z,37.83
2022-12-04T15:09:20.245Z,38.75
2022-12-04T15:12:12.413Z,38.60
2022-12-04T15:14:49.475Z,40.78
2022-12-04T15:17:18.840Z,39.33
2022-12-04T15:19:46.426Z,38.78
2022-12-04T15:22:25.514Z,38.53
2022-12-04T15:24:55.097Z,39.90
2022-12-04T15:27:31.987Z,41.22
2022-12-04T15:30:02.334Z,40.17
2022-12-04T15:32:32.175Z,35.63
2022-12-04T15:35:08.975Z,41.80
2022-12-04T15:37:37.052Z,38.83
2022-12-04T15:40:13.389Z,39.45
2022-12-04T15:42:41.097Z,44.70
2022-12-04T15:45:08.609Z,41.65
2022-12-04T15:47:42.022Z,43.47
2022-12-04T15:50:21.875Z,43.30
2022-12-04T15:53:06.738Z,39.72
2022-12-04T15:55:46.879Z,39.42
2022-12-04T15:58:24.155Z,36.20
2022-12-04T16:01:04.898Z,47.70
2022-12-04T16:03:42.327Z,51.60
2022-12-04T16:06:27.588Z,47.72
2022-12-04T16:09:01.550Z,46.05
2022-12-04T16:11:36.533Z,52.83
2022-12-04T16:14:13.015Z,48.00
2022-12-04T16:16:45.451Z,48.17
2022-12-04T16:19:37.699Z,46.83
2022-12-04T16:22:14.587Z,44.22
2022-12-04T16:24:42.814Z,47.15
2022-12-04T16:27:22.567Z,43.65
2022-12-04T16:29:51.331Z,49.00
2022-12-04T16:32:24.337Z,41.90
2022-12-04T16:34:51.911Z,39.45
2022-12-04T16:37:22.676Z,42.38
2022-12-04T16:39:50.879Z,45.28
2022-12-04T16:42:29.204Z,43.22
2022-12-04T16:44:58.178Z,42.17
2022-12-04T16:47:25.953Z,43.10
2022-12-04T16:49:54.108Z,45.67
2022-12-04T16:52:22.191Z,43.92
2022-12-04T16:54:49.795Z,41.22
2022-12-04T16:57:17.378Z,46.25
2022-12-04T16:59:44.934Z,44.95
2022-12-04T17:02:23.763Z,47.80
2022-12-04T17:04:57.046Z,43.05
2022-12-04T17:07:25.488Z,47.22
2022-12-04T17:09:53.123Z,46.80
2022-12-04T17:12:21.008Z,42.13
2022-12-04T17:14:48.587Z,41.10
2022-12-04T17:17:16.143Z,45.30
2022-12-04T17:19:43.688Z,42.70
2022-12-04T17:22:13.450Z,38.03
2022-12-04T17:24:48.106Z,44.55
2022-12-04T17:27:17.958Z,43.22
2022-12-04T17:29:45.584Z,47.40
2022-12-04T17:32:13.260Z,44.25
2022-12-04T17:34:40.849Z,45.83
2022-12-04T17:37:08.482Z,42.08
2022-12-04T17:39:36.113Z,53.17
2022-12-04T17:42:03.822Z,48.80
2022-12-04T17:44:31.410Z,51.67
2022-12-04T17:46:59.108Z,52.58
2022-12-04T17:49:26.925Z,56.97
2022-12-04T17:51:54.485Z,63.22
2022-12-04T17:54:22.098Z,61.10
2022-12-04T17:56:54.769Z,52.53
2022-12-04T18:01:52.912Z,50.03
2022-12-04T18:04:21.004Z,46.72
2022-12-04T18:06:48.641Z,49.88
2022-12-04T18:09:17.373Z,54.00
2022-12-04T18:11:47.743Z,51.47
2022-12-04T18:14:18.927Z,43.00
2022-12-04T18:16:53.653Z,43.88
2022-12-04T18:19:25.023Z,46.60
2022-12-04T18:21:54.247Z,47.50
2022-12-04T18:24:23.441Z,40.45
2022-12-04T18:26:51.307Z,41.97
2022-12-04T18:29:23.316Z,38.20
2022-12-04T18:31:51.640Z,46.60
2022-12-04T18:34:20.834Z,36.58
2022-12-04T18:36:49.145Z,45.33
2022-12-04T18:39:23.552Z,41.33
2022-12-04T18:41:54.889Z,40.65
2022-12-04T18:44:23.045Z,35.33
2022-12-04T18:46:50.654Z,38.00
2022-12-04T18:49:18.224Z,39.15
2022-12-04T18:51:50.001Z,42.60
2022-12-04T18:54:22.000Z,38.75
2022-12-04T18:56:50.686Z,40.17
2022-12-04T18:59:27.047Z,36.63
2022-12-04T19:01:55.148Z,43.85
2022-12-04T19:04:24.815Z,41.03
2022-12-04T19:06:56.048Z,38.75
2022-12-04T19:12:16.354Z,42.67
2022-12-04T19:14:43.910Z,37.33
2022-12-04T19:17:11.899Z,40.38
2022-12-04T19:19:39.560Z,38.63
2022-12-04T19:22:07.415Z,40.70
2022-12-04T19:24:35.182Z,44.50
2022-12-04T19:27:10.093Z,41.30
2022-12-04T19:29:40.112Z,41.38
2022-12-04T19:32:09.755Z,40.67
2022-12-04T19:34:37.567Z,43.67
2022-12-04T19:37:06.039Z,39.72
2022-12-04T19:39:36.350Z,43.67
2022-12-04T19:42:04.042Z,40.08
2022-12-04T19:44:48.774Z,44.38
2022-12-04T19:47:18.591Z,40.95
2022-12-04T19:49:46.595Z,41.95
2022-12-04T19:52:14.718Z,39.72
2022-12-04T19:54:42.416Z,38.10
2022-12-04T19:57:10.363Z,42.03
2022-12-04T19:59:43.074Z,40.47
2022-12-04T20:02:14.143Z,44.97
2022-12-04T20:04:43.128Z,41.75
2022-12-04T20:07:11.591Z,40.75
2022-12-04T20:09:39.284Z,42.63
2022-12-04T20:12:08.006Z,41.85
2022-12-04T20:14:37.712Z,44.90
2022-12-04T20:17:05.517Z,44.33
2022-12-04T20:19:34.076Z,46.33
2022-12-04T20:22:01.851Z,42.13
2022-12-04T20:24:29.520Z,42.55
2022-12-04T20:26:57.129Z,46.33
2022-12-04T20:29:24.836Z,40.28
2022-12-04T20:31:52.480Z,40.80
2022-12-04T20:34:20.136Z,49.65
2022-12-04T20:36:49.165Z,43.28
2022-12-04T20:39:19.310Z,42.13
2022-12-04T20:41:47.268Z,44.03
2022-12-04T20:44:18.225Z,42.63
2022-12-04T20:46:46.593Z,46.33
2022-12-04T20:49:21.758Z,41.17
2022-12-04T20:54:21.514Z,41.60
2022-12-04T20:56:53.160Z,39.80
2022-12-04T20:59:23.704Z,40.15
2022-12-04T21:01:52.609Z,44.55
2022-12-04T21:04:20.515Z,42.50
2022-12-04T21:06:48.420Z,43.03
2022-12-04T21:09:20.709Z,43.25
2022-12-04T21:11:55.978Z,44.38
2022-12-04T21:14:50.350Z,46.70
2022-12-04T21:17:19.604Z,44.30
2022-12-04T21:19:50.525Z,48.20
2022-12-04T21:22:18.976Z,44.60
2022-12-04T21:24:46.669Z,44.08
2022-12-04T21:27:19.115Z,38.38
2022-12-04T21:29:49.946Z,42.90
2022-12-04T21:32:19.244Z,45.15
2022-12-04T21:34:46.933Z,49.20
2022-12-04T21:37:14.611Z,42.17
2022-12-04T21:39:43.610Z,48.47
2022-12-04T21:42:29.373Z,47.83
2022-12-04T21:45:01.143Z,47.67
2022-12-04T21:47:29.394Z,46.30
2022-12-04T21:49:57.274Z,44.60
2022-12-04T21:52:25.520Z,43.97
2022-12-04T21:54:54.477Z,41.25
2022-12-04T21:57:23.580Z,47.22
2022-12-04T21:59:52.365Z,44.67
2022-12-04T22:02:20.664Z,41.50
2022-12-04T22:04:48.694Z,49.65
2022-12-04T22:07:16.374Z,44.47
2022-12-04T22:09:44.288Z,42.33
2022-12-04T22:12:41.380Z,45.20
2022-12-04T22:14:59.507Z,40.65
2022-12-04T22:17:29.929Z,38.08
2022-12-04T22:19:57.793Z,42.85
2022-12-04T22:22:25.489Z,38.90
2022-12-04T22:24:53.162Z,44.72
2022-12-04T22:27:20.787Z,40.72
2022-12-04T22:29:50.867Z,41.45
2022-12-04T22:32:19.961Z,43.40
2022-12-04T22:34:50.757Z,46.67
2022-12-04T22:37:18.394Z,43.10
2022-12-04T22:39:45.992Z,45.95
2022-12-04T22:42:13.699Z,44.65
2022-12-04T22:44:41.391Z,42.72
2022-12-04T22:47:09.073Z,43.08
2022-12-04T22:49:36.777Z,39.95
2022-12-04T22:52:05.264Z,46.95
2022-12-04T22:54:32.966Z,49.10
2022-12-04T22:57:00.653Z,46.28
2022-12-04T22:59:28.767Z,47.05
2022-12-04T23:01:56.480Z,50.83
2022-12-04T23:04:24.056Z,49.03
2022-12-04T23:06:51.920Z,50.35
2022-12-04T23:09:20.073Z,50.97
2022-12-04T23:11:52.417Z,51.20
2022-12-04T23:14:20.278Z,52.38
2022-12-04T23:16:48.547Z,53.75
2022-12-04T23:19:18.667Z,42.90
2022-12-04T23:21:50.821Z,44.15
2022-12-04T23:24:22.809Z,60.28
2022-12-04T23:26:50.359Z,55.25
2022-12-04T23:29:44.774Z,51.00
2022-12-04T23:32:05.469Z,43.88
2022-12-04T23:34:33.361Z,47.33
2022-12-04T23:37:01.164Z,51.67
2022-12-04T23:39:29.132Z,51.08
2022-12-04T23:41:56.684Z,59.63
2022-12-04T23:44:24.242Z,52.47
2022-12-04T23:46:52.786Z,49.42
2022-12-04T23:49:20.416Z,50.88
2022-12-04T23:51:47.968Z,52.28
2022-12-04T23:54:15.519Z,54.28
2022-12-04T23:56:43.971Z,54.53
2022-12-04T23:59:11.521Z,45.85
